createdAt,value
2022-09-20T00:00:57.157Z,99.99
2022-09-20T00:01:57.080Z,99.99
2022-09-20T00:02:57.083Z,99.99
2022-09-20T00:03:57.051Z,99.99
2022-09-20T00:04:57.088Z,99.99
2022-09-20T00:05:57.083Z,99.99
2022-09-20T00:06:57.010Z,99.99
2022-09-20T00:07:56.991Z,99.99
2022-09-20T00:08:56.968Z,99.99
2022-09-20T00:09:56.969Z,99.99
2022-09-20T00:10:56.962Z,99.99
2022-09-20T00:11:56.950Z,99.99
2022-09-20T00:12:56.933Z,99.99
2022-09-20T00:13:56.933Z,99.99
2022-09-20T00:14:56.923Z,99.99
2022-09-20T00:15:56.899Z,99.99
2022-09-20T00:16:56.929Z,99.99
2022-09-20T00:17:56.858Z,99.99
2022-09-20T00:18:56.879Z,99.99
2022-09-20T00:19:56.864Z,99.99
2022-09-20T00:20:56.829Z,99.99
2022-09-20T00:21:56.809Z,99.99
2022-09-20T00:22:56.835Z,99.90
2022-09-20T00:23:56.810Z,99.90
2022-09-20T00:24:56.802Z,99.79
2022-09-20T00:25:56.763Z,99.79
2022-09-20T00:26:56.753Z,99.69
2022-09-20T00:27:56.741Z,99.69
2022-09-20T00:28:56.733Z,99.59
2022-09-20T00:29:56.721Z,99.59
2022-09-20T00:30:56.699Z,99.54
2022-09-20T00:31:56.712Z,99.54
2022-09-20T00:32:56.682Z,99.54
2022-09-20T00:33:56.672Z,99.63
2022-09-20T00:34:56.661Z,99.54
2022-09-20T00:35:56.639Z,99.54
2022-09-20T00:36:56.631Z,99.63
2022-09-20T00:37:56.632Z,99.54
2022-09-20T00:38:56.603Z,99.63
2022-09-20T00:39:56.685Z,99.63
2022-09-20T00:40:56.571Z,99.63
2022-09-20T00:41:56.564Z,99.63
2022-09-20T00:42:56.551Z,99.54
2022-09-20T00:43:56.541Z,99.54
2022-09-20T00:44:56.521Z,99.54
2022-09-20T00:45:56.579Z,99.54
2022-09-20T00:46:56.493Z,99.54
2022-09-20T00:47:56.482Z,99.54
2022-09-20T00:49:03.489Z,99.54
2022-09-20T00:49:56.459Z,99.54
2022-09-20T00:50:56.446Z,99.54
2022-09-20T00:51:56.445Z,99.54
2022-09-20T00:52:56.442Z,99.54
2022-09-20T00:53:56.428Z,99.54
2022-09-20T00:54:56.433Z,99.54
2022-09-20T00:55:56.435Z,99.63
2022-09-20T00:56:56.385Z,99.68
2022-09-20T00:57:56.399Z,99.79
2022-09-20T00:58:56.370Z,99.79
2022-09-20T00:59:56.341Z,99.79
2022-09-20T01:00:56.374Z,99.79
2022-09-20T01:01:56.419Z,99.79
2022-09-20T01:02:56.299Z,99.89
2022-09-20T01:03:56.447Z,99.89
2022-09-20T01:04:56.263Z,99.99
2022-09-20T01:05:56.275Z,99.99
2022-09-20T01:06:56.240Z,99.99
2022-09-20T01:07:56.234Z,99.99
2022-09-20T01:08:56.238Z,99.99
2022-09-20T01:09:56.209Z,99.99
2022-09-20T01:10:56.185Z,99.99
2022-09-20T01:11:56.191Z,99.99
2022-09-20T01:12:56.143Z,99.99
2022-09-20T01:13:56.130Z,99.99
2022-09-20T01:14:56.135Z,99.99
2022-09-20T01:15:56.146Z,99.99
2022-09-20T01:16:56.169Z,99.99
2022-09-20T01:17:56.078Z,99.99
2022-09-20T01:18:56.075Z,99.99
2022-09-20T01:19:56.085Z,99.99
2022-09-20T01:20:56.046Z,99.99
2022-09-20T01:21:56.035Z,99.99
2022-09-20T01:22:56.023Z,99.99
2022-09-20T01:23:56.015Z,99.99
2022-09-20T01:24:56.013Z,99.99
2022-09-20T01:25:56.023Z,99.99
2022-09-20T01:26:55.984Z,99.99
2022-09-20T01:27:55.974Z,99.99
2022-09-20T01:28:56.012Z,99.99
2022-09-20T01:29:55.965Z,99.99
2022-09-20T01:30:55.934Z,99.99
2022-09-20T01:31:55.946Z,99.99
2022-09-20T01:32:55.896Z,99.99
2022-09-20T01:33:55.886Z,99.99
2022-09-20T01:34:55.865Z,99.99
2022-09-20T01:35:55.865Z,99.99
2022-09-20T01:36:55.863Z,99.99
2022-09-20T01:37:55.835Z,99.99
2022-09-20T01:38:55.825Z,99.99
2022-09-20T01:39:55.938Z,99.99
2022-09-20T01:40:55.793Z,99.99
2022-09-20T01:41:55.775Z,99.99
2022-09-20T01:42:55.762Z,99.99
2022-09-20T01:43:55.857Z,99.99
2022-09-20T01:44:55.733Z,99.99
2022-09-20T01:45:55.757Z,99.99
2022-09-20T01:46:55.725Z,99.99
2022-09-20T01:47:55.707Z,99.99
2022-09-20T01:48:55.695Z,99.99
2022-09-20T01:49:55.693Z,99.99
2022-09-20T01:50:55.666Z,99.99
2022-09-20T01:51:55.665Z,99.99
2022-09-20T01:52:55.658Z,99.99
2022-09-20T01:53:55.652Z,99.99
2022-09-20T01:54:55.616Z,99.99
2022-09-20T01:55:55.604Z,99.99
2022-09-20T01:56:55.581Z,99.99
2022-09-20T01:57:55.614Z,99.99
2022-09-20T01:59:12.858Z,99.99
2022-09-20T01:59:56.574Z,99.99
2022-09-20T02:00:55.619Z,99.99
2022-09-20T02:01:55.613Z,99.99
2022-09-20T02:02:55.505Z,99.99
2022-09-20T02:03:55.483Z,99.99
2022-09-20T02:04:55.488Z,99.99
2022-09-20T02:05:55.527Z,99.99
2022-09-20T02:06:55.455Z,99.99
2022-09-20T02:07:55.444Z,99.99
2022-09-20T02:08:55.490Z,99.99
2022-09-20T02:09:55.446Z,99.99
2022-09-20T02:10:55.415Z,99.99
2022-09-20T02:11:55.428Z,99.99
2022-09-20T02:12:55.373Z,99.99
2022-09-20T02:13:55.377Z,99.99
2022-09-20T02:14:55.354Z,99.99
2022-09-20T02:15:55.330Z,99.99
2022-09-20T02:16:55.374Z,99.99
2022-09-20T02:17:55.318Z,99.99
2022-09-20T02:18:55.314Z,99.99
2022-09-20T02:19:55.285Z,99.99
2022-09-20T02:20:55.284Z,99.99
2022-09-20T02:21:55.264Z,99.99
2022-09-20T02:22:55.356Z,99.99
2022-09-20T02:23:55.253Z,99.99
2022-09-20T02:24:55.226Z,99.99
2022-09-20T02:25:55.224Z,99.99
2022-09-20T02:26:55.194Z,99.99
2022-09-20T02:27:55.184Z,99.99
2022-09-20T02:28:55.215Z,99.99
2022-09-20T02:29:55.162Z,99.99
2022-09-20T02:30:55.161Z,99.99
2022-09-20T02:31:55.228Z,99.99
2022-09-20T02:32:55.125Z,99.99
2022-09-20T02:33:55.132Z,99.99
2022-09-20T02:34:55.127Z,99.99
2022-09-20T02:35:55.094Z,99.99
2022-09-20T02:36:55.064Z,99.99
2022-09-20T02:37:55.055Z,99.99
2022-09-20T02:38:55.098Z,99.99
2022-09-20T02:39:55.043Z,99.99
2022-09-20T02:40:55.016Z,99.99
2022-09-20T02:41:55.005Z,99.99
2022-09-20T02:42:55.023Z,99.99
2022-09-20T02:43:54.975Z,99.99
2022-09-20T02:44:55.056Z,99.99
2022-09-20T02:45:55.000Z,99.99
2022-09-20T02:46:54.937Z,99.99
2022-09-20T02:47:54.922Z,99.99
2022-09-20T02:48:54.917Z,99.99
2022-09-20T02:49:54.946Z,99.99
2022-09-20T02:50:54.901Z,99.99
2022-09-20T02:51:54.914Z,99.99
2022-09-20T02:52:54.863Z,99.99
2022-09-20T02:53:54.893Z,99.99
2022-09-20T02:54:54.839Z,99.99
2022-09-20T02:55:54.819Z,99.99
2022-09-20T02:56:54.824Z,99.99
2022-09-20T02:57:54.795Z,99.99
2022-09-20T02:58:54.775Z,99.99
2022-09-20T02:59:54.797Z,99.99
2022-09-20T03:00:54.864Z,99.99
2022-09-20T03:01:54.844Z,99.99
2022-09-20T03:02:54.787Z,99.99
2022-09-20T03:03:54.717Z,99.99
2022-09-20T03:04:54.726Z,99.99
2022-09-20T03:05:54.698Z,99.99
2022-09-20T03:06:54.707Z,99.99
2022-09-20T03:07:54.710Z,99.99
2022-09-20T03:08:54.770Z,99.99
2022-09-20T03:09:54.633Z,99.99
2022-09-20T03:10:54.705Z,99.99
2022-09-20T03:11:54.616Z,99.99
2022-09-20T03:12:54.627Z,99.99
2022-09-20T03:13:54.620Z,99.99
2022-09-20T03:14:54.585Z,99.99
2022-09-20T03:15:54.556Z,99.99
2022-09-20T03:16:54.651Z,99.99
2022-09-20T03:17:54.549Z,99.99
2022-09-20T03:18:54.538Z,99.99
2022-09-20T03:19:54.587Z,99.99
2022-09-20T03:20:54.496Z,99.99
2022-09-20T03:21:54.500Z,99.99
2022-09-20T03:22:54.485Z,99.99
2022-09-20T03:23:54.489Z,99.99
2022-09-20T03:25:09.698Z,99.99
2022-09-20T03:25:54.458Z,99.99
2022-09-20T03:26:54.443Z,99.99
2022-09-20T03:27:54.418Z,99.99
2022-09-20T03:28:54.423Z,99.99
2022-09-20T03:29:54.398Z,99.99
2022-09-20T03:30:54.380Z,99.99
2022-09-20T03:31:54.462Z,99.99
2022-09-20T03:32:54.356Z,99.99
2022-09-20T03:33:54.326Z,99.99
2022-09-20T03:34:54.325Z,99.99
2022-09-20T03:35:54.309Z,99.99
2022-09-20T03:36:54.295Z,99.99
2022-09-20T03:37:54.307Z,99.99
2022-09-20T03:38:54.345Z,99.99
2022-09-20T03:39:54.255Z,99.99
2022-09-20T03:40:54.300Z,99.99
2022-09-20T03:41:54.257Z,99.99
2022-09-20T03:42:54.245Z,99.99
2022-09-20T03:43:54.238Z,99.99
2022-09-20T03:44:54.206Z,99.99
2022-09-20T03:45:54.298Z,99.99
2022-09-20T03:46:54.200Z,99.99
2022-09-20T03:47:54.184Z,99.99
2022-09-20T03:48:54.145Z,99.99
2022-09-20T03:49:54.133Z,99.99
2022-09-20T03:50:54.185Z,99.99
2022-09-20T03:51:54.106Z,99.99
2022-09-20T03:52:54.095Z,99.99
2022-09-20T03:53:54.095Z,99.99
2022-09-20T03:54:54.097Z,99.99
2022-09-20T03:55:54.084Z,99.99
2022-09-20T03:56:54.065Z,99.99
2022-09-20T03:57:54.030Z,99.99
2022-09-20T03:58:54.025Z,99.99
2022-09-20T03:59:54.026Z,99.99
2022-09-20T04:00:54.022Z,99.99
2022-09-20T04:01:53.995Z,99.99
2022-09-20T04:02:53.973Z,99.99
2022-09-20T04:03:53.964Z,99.99
2022-09-20T04:04:53.938Z,99.99
2022-09-20T04:05:53.935Z,99.99
2022-09-20T04:06:53.974Z,99.99
2022-09-20T04:07:53.923Z,99.99
2022-09-20T04:08:53.896Z,99.99
2022-09-20T04:09:53.896Z,99.99
2022-09-20T04:10:53.855Z,99.99
2022-09-20T04:11:53.896Z,99.99
2022-09-20T04:12:53.857Z,99.99
2022-09-20T04:13:53.834Z,99.99
2022-09-20T04:14:53.817Z,99.99
2022-09-20T04:15:53.797Z,99.99
2022-09-20T04:16:53.871Z,99.99
2022-09-20T04:17:53.793Z,99.99
2022-09-20T04:18:53.780Z,99.99
2022-09-20T04:19:53.747Z,99.99
2022-09-20T04:20:53.744Z,99.99
2022-09-20T04:21:53.754Z,99.99
2022-09-20T04:22:53.713Z,99.99
2022-09-20T04:23:53.793Z,99.99
2022-09-20T04:24:53.713Z,99.99
2022-09-20T04:25:53.690Z,99.99
2022-09-20T04:26:53.688Z,99.99
2022-09-20T04:27:53.647Z,99.99
2022-09-20T04:28:53.636Z,99.99
2022-09-20T04:29:53.637Z,99.99
2022-09-20T04:30:53.627Z,99.99
2022-09-20T04:31:54.357Z,99.99
2022-09-20T04:32:53.579Z,99.99
2022-09-20T04:33:53.576Z,99.99
2022-09-20T04:34:53.547Z,99.99
2022-09-20T04:35:53.559Z,99.99
2022-09-20T04:36:53.559Z,99.99
2022-09-20T04:37:53.528Z,99.99
2022-09-20T04:38:53.530Z,99.99
2022-09-20T04:39:53.518Z,99.99
2022-09-20T04:40:53.516Z,99.99
2022-09-20T04:41:53.469Z,99.99
2022-09-20T04:42:53.468Z,99.99
2022-09-20T04:43:53.474Z,99.99
2022-09-20T04:44:53.506Z,99.99
2022-09-20T04:45:53.458Z,99.99
2022-09-20T04:46:56.024Z,99.99
2022-09-20T04:47:53.467Z,99.99
2022-09-20T04:48:53.486Z,99.99
2022-09-20T04:49:53.390Z,99.99
2022-09-20T04:50:53.417Z,99.99
2022-09-20T04:51:53.408Z,99.99
2022-09-20T04:52:53.350Z,99.99
2022-09-20T04:53:53.351Z,99.99
2022-09-20T04:54:53.300Z,99.99
2022-09-20T04:55:53.297Z,99.99
2022-09-20T04:56:53.287Z,99.99
2022-09-20T04:57:53.277Z,99.99
2022-09-20T04:58:53.258Z,99.99
2022-09-20T04:59:53.236Z,99.99
2022-09-20T05:00:53.259Z,99.99
2022-09-20T05:01:53.257Z,99.99
2022-09-20T05:02:53.206Z,99.99
2022-09-20T05:03:53.215Z,99.99
2022-09-20T05:04:53.187Z,99.99
2022-09-20T05:05:53.159Z,99.99
2022-09-20T05:06:53.166Z,99.99
2022-09-20T05:07:53.134Z,99.99
2022-09-20T05:08:57.986Z,99.99
2022-09-20T05:09:54.131Z,99.99
2022-09-20T05:10:53.107Z,99.99
2022-09-20T05:11:53.082Z,99.99
2022-09-20T05:12:53.068Z,99.99
2022-09-20T05:13:53.168Z,99.99
2022-09-20T05:14:53.058Z,99.99
2022-09-20T05:15:53.072Z,99.99
2022-09-20T05:16:53.059Z,99.99
2022-09-20T05:17:52.996Z,99.99
2022-09-20T05:18:53.093Z,99.99
2022-09-20T05:19:53.005Z,99.99
2022-09-20T05:20:53.008Z,99.99
2022-09-20T05:21:52.959Z,99.99
2022-09-20T05:22:52.945Z,99.99
2022-09-20T05:23:52.930Z,99.99
2022-09-20T05:24:52.918Z,99.99
2022-09-20T05:25:52.915Z,99.99
2022-09-20T05:26:52.897Z,99.99
2022-09-20T05:27:52.909Z,99.99
2022-09-20T05:28:52.869Z,99.99
2022-09-20T05:29:52.888Z,99.99
2022-09-20T05:30:52.840Z,99.99
2022-09-20T05:31:52.884Z,99.99
2022-09-20T05:32:52.818Z,99.99
2022-09-20T05:33:52.824Z,99.99
2022-09-20T05:34:52.787Z,99.99
2022-09-20T05:35:52.766Z,99.99
2022-09-20T05:36:52.825Z,99.99
2022-09-20T05:37:52.748Z,99.99
2022-09-20T05:38:52.856Z,99.99
2022-09-20T05:39:52.730Z,99.99
2022-09-20T05:40:52.709Z,99.99
2022-09-20T05:41:52.719Z,99.99
2022-09-20T05:42:52.690Z,99.99
2022-09-20T05:43:52.734Z,99.99
2022-09-20T05:44:52.659Z,99.99
2022-09-20T05:45:52.736Z,99.99
2022-09-20T05:46:52.641Z,99.99
2022-09-20T05:47:52.672Z,99.99
2022-09-20T05:48:52.628Z,99.90
2022-09-20T05:49:52.588Z,99.65
2022-09-20T05:50:55.447Z,99.54
2022-09-20T05:51:52.567Z,99.44
2022-09-20T05:52:52.539Z,99.44
2022-09-20T05:53:52.567Z,99.34
2022-09-20T05:54:52.519Z,99.24
2022-09-20T05:55:52.516Z,99.03
2022-09-20T05:56:52.500Z,98.93
2022-09-20T05:57:52.500Z,98.83
2022-09-20T05:58:52.489Z,98.68
2022-09-20T05:59:52.469Z,98.58
2022-09-20T06:00:52.485Z,98.47
2022-09-20T06:01:52.439Z,98.16
2022-09-20T06:02:52.420Z,97.91
2022-09-20T06:03:52.429Z,97.71
2022-09-20T06:04:52.412Z,97.50
2022-09-20T06:05:52.389Z,97.30
2022-09-20T06:06:52.377Z,96.95
2022-09-20T06:07:52.367Z,96.74
2022-09-20T06:08:52.373Z,96.54
2022-09-20T06:09:52.338Z,96.49
2022-09-20T06:10:52.330Z,95.98
2022-09-20T06:11:52.326Z,95.88
2022-09-20T06:12:52.292Z,95.63
2022-09-20T06:13:52.287Z,95.43
2022-09-20T06:14:52.269Z,95.02
2022-09-20T06:15:52.355Z,94.60
2022-09-20T06:16:52.350Z,94.51
2022-09-20T06:17:52.258Z,94.20
2022-09-20T06:18:52.210Z,94.20
2022-09-20T06:19:52.210Z,93.95
2022-09-20T06:20:52.189Z,94.06
2022-09-20T06:21:52.198Z,93.95
2022-09-20T06:22:52.160Z,93.74
2022-09-20T06:23:52.234Z,93.85
2022-09-20T06:24:52.138Z,93.40
2022-09-20T06:25:52.129Z,93.09
2022-09-20T06:26:52.118Z,92.78
2022-09-20T06:27:52.110Z,92.54
2022-09-20T06:28:55.255Z,92.43
2022-09-20T06:29:53.081Z,91.82
2022-09-20T06:30:52.136Z,91.41
2022-09-20T06:31:52.060Z,91.82
2022-09-20T06:32:52.079Z,92.02
2022-09-20T06:33:52.029Z,91.61
2022-09-20T06:34:52.132Z,91.61
2022-09-20T06:35:54.729Z,91.61
2022-09-20T06:36:52.981Z,91.61
2022-09-20T06:37:52.042Z,91.92
2022-09-20T06:38:51.976Z,92.02
2022-09-20T06:39:51.952Z,91.82
2022-09-20T06:40:51.940Z,91.82
2022-09-20T06:41:51.921Z,91.61
2022-09-20T06:42:51.922Z,91.52
2022-09-20T06:43:51.911Z,90.90
2022-09-20T06:44:51.883Z,91.00
2022-09-20T06:45:51.938Z,90.86
2022-09-20T06:46:51.841Z,90.96
2022-09-20T06:47:51.839Z,90.55
2022-09-20T06:48:51.847Z,90.41
2022-09-20T06:49:58.809Z,90.71
2022-09-20T06:50:51.799Z,90.06
2022-09-20T06:51:51.781Z,89.75
2022-09-20T06:52:51.771Z,89.65
2022-09-20T06:53:51.837Z,88.63
2022-09-20T06:54:51.741Z,88.73
2022-09-20T06:55:51.731Z,88.63
2022-09-20T06:56:51.712Z,88.84
2022-09-20T06:57:51.731Z,88.53
2022-09-20T06:58:51.695Z,88.63
2022-09-20T06:59:51.710Z,88.18
2022-09-20T07:00:51.663Z,88.08
2022-09-20T07:01:51.704Z,87.77
2022-09-20T07:02:51.630Z,88.02
2022-09-20T07:03:51.630Z,88.22
2022-09-20T07:04:51.611Z,88.43
2022-09-20T07:05:51.599Z,88.43
2022-09-20T07:06:51.585Z,88.32
2022-09-20T07:07:51.572Z,88.22
2022-09-20T07:08:51.602Z,88.53
2022-09-20T07:09:51.551Z,88.84
2022-09-20T07:10:51.532Z,88.43
2022-09-20T07:11:51.522Z,88.18
2022-09-20T07:12:51.512Z,88.22
2022-09-20T07:13:51.524Z,87.82
2022-09-20T07:14:51.481Z,88.67
2022-09-20T07:15:51.466Z,88.78
2022-09-20T07:16:51.470Z,88.78
2022-09-20T07:17:51.441Z,89.12
2022-09-20T07:18:51.431Z,89.23
2022-09-20T07:19:51.439Z,89.63
2022-09-20T07:20:51.402Z,90.04
2022-09-20T07:21:51.391Z,89.94
2022-09-20T07:22:51.392Z,90.14
2022-09-20T07:23:51.440Z,90.35
2022-09-20T07:24:51.375Z,90.25
2022-09-20T07:25:51.375Z,90.00
2022-09-20T07:26:51.344Z,89.90
2022-09-20T07:27:51.353Z,90.00
2022-09-20T07:28:51.303Z,89.08
2022-09-20T07:29:51.313Z,89.08
2022-09-20T07:30:51.296Z,89.04
2022-09-20T07:31:51.320Z,89.04
2022-09-20T07:32:51.253Z,88.63
2022-09-20T07:33:51.242Z,88.73
2022-09-20T07:34:51.232Z,88.59
2022-09-20T07:35:51.222Z,88.18
2022-09-20T07:36:51.254Z,87.47
2022-09-20T07:37:51.194Z,87.88
2022-09-20T07:38:51.220Z,87.67
2022-09-20T07:39:51.185Z,87.16
2022-09-20T07:40:51.162Z,86.76
2022-09-20T07:41:51.165Z,86.86
2022-09-20T07:42:56.012Z,86.86
2022-09-20T07:43:52.123Z,86.45
2022-09-20T07:44:51.123Z,87.16
2022-09-20T07:45:51.172Z,86.92
2022-09-20T07:46:51.088Z,86.41
2022-09-20T07:47:51.073Z,86.00
2022-09-20T07:48:51.055Z,86.41
2022-09-20T07:49:51.053Z,86.21
2022-09-20T07:50:51.036Z,86.41
2022-09-20T07:51:51.016Z,85.86
2022-09-20T07:52:51.011Z,85.28
2022-09-20T07:53:51.024Z,85.49
2022-09-20T07:54:50.984Z,86.21
2022-09-20T07:55:50.981Z,86.10
2022-09-20T07:56:50.964Z,85.90
2022-09-20T07:57:50.947Z,86.00
2022-09-20T07:58:52.547Z,85.60
2022-09-20T07:59:50.916Z,85.49
2022-09-20T08:00:50.966Z,86.00
2022-09-20T08:01:50.995Z,86.21
2022-09-20T08:02:50.906Z,85.60
2022-09-20T08:03:50.915Z,85.49
2022-09-20T08:04:50.856Z,86.10
2022-09-20T08:05:50.918Z,86.00
2022-09-20T08:06:50.846Z,86.51
2022-09-20T08:07:50.824Z,86.21
2022-09-20T08:08:50.925Z,85.96
2022-09-20T08:09:50.817Z,85.66
2022-09-20T08:10:50.774Z,85.25
2022-09-20T08:11:50.775Z,84.94
2022-09-20T08:14:08.367Z,84.94
2022-09-20T08:14:51.725Z,85.55
2022-09-20T08:15:50.817Z,84.80
2022-09-20T08:16:50.764Z,84.90
2022-09-20T08:17:50.684Z,84.59
2022-09-20T08:18:50.705Z,84.39
2022-09-20T08:19:50.693Z,84.09
2022-09-20T08:20:50.657Z,84.59
2022-09-20T08:21:50.668Z,84.39
2022-09-20T08:23:12.569Z,84.19
2022-09-20T08:23:51.650Z,84.29
2022-09-20T08:24:50.608Z,84.66
2022-09-20T08:25:50.598Z,84.56
2022-09-20T08:26:50.565Z,83.70
2022-09-20T08:27:50.565Z,82.99
2022-09-20T08:28:50.545Z,82.89
2022-09-20T08:29:50.538Z,82.62
2022-09-20T08:30:50.513Z,82.99
2022-09-20T08:31:50.528Z,82.99
2022-09-20T08:32:50.547Z,82.89
2022-09-20T08:33:50.478Z,82.99
2022-09-20T08:34:50.478Z,82.38
2022-09-20T08:35:50.471Z,82.38
2022-09-20T08:36:50.448Z,82.68
2022-09-20T08:37:50.860Z,82.75
2022-09-20T08:39:59.153Z,82.10
2022-09-20T08:40:51.388Z,81.23
2022-09-20T08:41:50.382Z,81.43
2022-09-20T08:42:50.376Z,81.12
2022-09-20T08:43:50.349Z,80.31
2022-09-20T08:44:57.781Z,81.02
2022-09-20T08:45:51.358Z,81.43
2022-09-20T08:46:50.319Z,81.23
2022-09-20T08:47:50.312Z,81.43
2022-09-20T08:48:50.280Z,80.92
2022-09-20T08:49:56.392Z,81.12
2022-09-20T08:50:51.250Z,81.12
2022-09-20T08:51:50.244Z,81.29
2022-09-20T08:52:50.246Z,79.86
2022-09-20T08:53:50.218Z,80.47
2022-09-20T08:54:50.198Z,80.68
2022-09-20T08:55:50.188Z,81.29
2022-09-20T08:56:50.176Z,81.25
2022-09-20T08:57:50.186Z,79.83
2022-09-20T08:58:50.160Z,79.32
2022-09-20T08:59:50.143Z,79.18
2022-09-20T09:00:50.154Z,78.78
2022-09-20T09:01:50.109Z,79.08
2022-09-20T09:02:50.140Z,78.98
2022-09-20T09:03:50.091Z,78.47
2022-09-20T09:04:50.073Z,78.27
2022-09-20T09:05:50.062Z,78.37
2022-09-20T09:06:50.070Z,78.27
2022-09-20T09:07:50.041Z,78.47
2022-09-20T09:08:50.018Z,78.37
2022-09-20T09:09:50.008Z,78.88
2022-09-20T09:10:49.979Z,79.18
2022-09-20T09:11:49.977Z,79.08
2022-09-20T09:12:49.972Z,78.98
2022-09-20T09:13:49.961Z,79.59
2022-09-20T09:14:49.949Z,79.83
2022-09-20T09:15:49.972Z,79.22
2022-09-20T09:16:49.997Z,79.63
2022-09-20T09:17:49.911Z,79.72
2022-09-20T09:18:49.909Z,79.38
2022-09-20T09:19:49.906Z,79.38
2022-09-20T09:20:49.869Z,78.98
2022-09-20T09:21:49.898Z,79.18
2022-09-20T09:22:49.830Z,79.38
2022-09-20T09:23:49.821Z,78.88
2022-09-20T09:24:49.811Z,78.67
2022-09-20T09:25:49.794Z,77.76
2022-09-20T09:26:49.771Z,77.97
2022-09-20T09:27:49.771Z,78.03
2022-09-20T09:28:49.760Z,77.22
2022-09-20T09:29:49.740Z,76.51
2022-09-20T09:30:49.745Z,76.71
2022-09-20T09:31:49.774Z,76.71
2022-09-20T09:32:49.714Z,76.20
2022-09-20T09:33:49.711Z,76.10
2022-09-20T09:34:49.743Z,75.29
2022-09-20T09:35:49.681Z,76.06
2022-09-20T09:36:49.662Z,74.68
2022-09-20T09:37:49.653Z,75.59
2022-09-20T09:38:49.630Z,75.96
2022-09-20T09:39:49.630Z,76.06
2022-09-20T09:40:49.601Z,75.46
2022-09-20T09:41:49.591Z,75.35
2022-09-20T09:42:49.624Z,75.62
2022-09-20T09:43:49.565Z,75.35
2022-09-20T09:44:49.562Z,74.95
2022-09-20T09:45:49.575Z,74.65
2022-09-20T09:46:49.522Z,74.81
2022-09-20T09:47:49.505Z,74.68
2022-09-20T09:48:49.505Z,74.88
2022-09-20T09:49:49.482Z,74.41
2022-09-20T09:50:49.480Z,73.70
2022-09-20T09:51:49.474Z,74.65
2022-09-20T09:52:49.446Z,75.15
2022-09-20T09:53:49.443Z,73.83
2022-09-20T09:54:49.425Z,73.93
2022-09-20T09:55:49.415Z,74.61
2022-09-20T09:56:49.405Z,75.38
2022-09-20T09:57:49.405Z,73.60
2022-09-20T09:58:49.375Z,73.70
2022-09-20T09:59:49.378Z,73.25
2022-09-20T10:00:49.371Z,71.73
2022-09-20T10:01:49.451Z,72.41
2022-09-20T10:02:49.352Z,72.14
2022-09-20T10:03:49.313Z,72.24
2022-09-20T10:04:49.294Z,72.11
2022-09-20T10:05:49.274Z,71.50
2022-09-20T10:06:52.251Z,70.56
2022-09-20T10:07:49.316Z,70.25
2022-09-20T10:08:49.237Z,69.10
2022-09-20T10:09:49.223Z,67.76
2022-09-20T10:10:49.237Z,67.25
2022-09-20T10:11:49.197Z,67.79
2022-09-20T10:12:49.195Z,68.63
2022-09-20T10:13:49.189Z,69.54
2022-09-20T10:14:49.167Z,68.90
2022-09-20T10:15:49.147Z,67.99
2022-09-20T10:16:49.159Z,67.99
2022-09-20T10:17:49.139Z,68.16
2022-09-20T10:18:49.113Z,67.25
2022-09-20T10:19:49.231Z,66.92
2022-09-20T10:20:49.086Z,66.89
2022-09-20T10:21:49.082Z,65.95
2022-09-20T10:23:14.747Z,65.75
2022-09-20T10:24:03.016Z,64.67
2022-09-20T10:24:51.640Z,64.56
2022-09-20T10:25:49.026Z,65.47
2022-09-20T10:26:49.087Z,65.47
2022-09-20T10:27:49.020Z,65.61
2022-09-20T10:28:49.017Z,63.93
2022-09-20T10:29:48.987Z,64.84
2022-09-20T10:30:49.007Z,64.43
2022-09-20T10:31:48.955Z,63.85
2022-09-20T10:32:48.930Z,65.67
2022-09-20T10:33:48.918Z,66.21
2022-09-20T10:34:48.900Z,67.05
2022-09-20T10:35:48.948Z,67.46
2022-09-20T10:36:48.884Z,67.89
2022-09-20T10:37:49.585Z,74.40
2022-09-20T10:38:48.858Z,74.24
2022-09-20T10:39:48.840Z,76.84
2022-09-20T10:40:48.829Z,80.10
2022-09-20T10:41:48.817Z,83.93
2022-09-20T10:42:48.804Z,88.13
2022-09-20T10:43:48.783Z,90.31
2022-09-20T10:44:48.771Z,90.77
2022-09-20T10:46:27.890Z,88.92
2022-09-20T10:46:49.828Z,92.63
2022-09-20T10:47:48.729Z,94.30
2022-09-20T10:48:48.717Z,95.93
2022-09-20T10:49:50.895Z,95.77
2022-09-20T10:50:48.730Z,94.59
2022-09-20T10:51:48.691Z,94.33
2022-09-20T10:52:48.692Z,93.35
2022-09-20T10:53:48.662Z,94.40
2022-09-20T10:54:48.652Z,95.51
2022-09-20T10:55:48.632Z,97.34
2022-09-20T10:56:48.638Z,98.72
2022-09-20T10:57:48.603Z,99.85
2022-09-20T10:58:48.610Z,99.99
2022-09-20T10:59:48.571Z,99.99
2022-09-20T11:00:48.644Z,99.99
2022-09-20T11:01:48.590Z,99.99
2022-09-20T11:02:48.576Z,99.99
2022-09-20T11:03:48.521Z,99.99
2022-09-20T11:04:48.517Z,99.99
2022-09-20T11:05:48.491Z,99.99
2022-09-20T11:06:48.502Z,99.99
2022-09-20T11:07:48.475Z,99.99
2022-09-20T11:08:48.480Z,99.99
2022-09-20T11:09:48.452Z,99.99
2022-09-20T11:10:48.450Z,99.99
2022-09-20T11:11:48.432Z,99.99
2022-09-20T11:12:48.430Z,99.99
2022-09-20T11:13:48.432Z,99.99
2022-09-20T11:14:48.528Z,99.99
2022-09-20T11:15:48.437Z,99.99
2022-09-20T11:16:48.617Z,99.99
2022-09-20T11:17:48.411Z,99.99
2022-09-20T11:18:48.442Z,99.48
2022-09-20T11:19:48.342Z,99.48
2022-09-20T11:20:48.310Z,98.88
2022-09-20T11:21:48.355Z,98.77
2022-09-20T11:22:48.392Z,98.32
2022-09-20T11:23:48.273Z,98.02
2022-09-20T11:24:48.264Z,97.86
2022-09-20T11:25:48.243Z,97.96
2022-09-20T11:26:48.264Z,97.55
2022-09-20T11:27:48.225Z,97.65
2022-09-20T11:28:48.203Z,98.57
2022-09-20T11:29:48.193Z,98.68
2022-09-20T11:30:48.181Z,98.00
2022-09-20T11:31:48.232Z,98.88
2022-09-20T11:32:48.151Z,97.80
2022-09-20T11:33:48.131Z,96.92
2022-09-20T11:34:48.134Z,97.24
2022-09-20T11:35:48.110Z,97.28
2022-09-20T11:36:48.102Z,97.58
2022-09-20T11:37:48.143Z,96.36
2022-09-20T11:38:52.867Z,96.51
2022-09-20T11:39:49.063Z,96.81
2022-09-20T11:40:48.073Z,97.42
2022-09-20T11:41:48.054Z,97.33
2022-09-20T11:42:48.023Z,97.63
2022-09-20T11:43:48.026Z,97.94
2022-09-20T11:44:48.002Z,96.92
2022-09-20T11:45:48.032Z,96.41
2022-09-20T11:46:47.972Z,96.51
2022-09-20T11:47:54.863Z,96.00
2022-09-20T11:48:48.969Z,95.07
2022-09-20T11:49:47.942Z,95.48
2022-09-20T11:50:47.945Z,94.51
2022-09-20T11:51:47.904Z,95.28
2022-09-20T11:52:47.895Z,94.51
2022-09-20T11:53:47.884Z,94.51
2022-09-20T11:54:47.883Z,94.20
2022-09-20T11:55:47.864Z,95.02
2022-09-20T11:56:47.891Z,94.20
2022-09-20T11:57:47.834Z,94.92
2022-09-20T11:58:47.832Z,95.32
2022-09-20T11:59:47.802Z,95.94
2022-09-20T12:00:47.843Z,95.32
2022-09-20T12:01:47.806Z,95.12
2022-09-20T12:02:47.898Z,95.02
2022-09-20T12:03:47.765Z,95.07
2022-09-20T12:04:47.755Z,96.20
2022-09-20T12:05:47.735Z,97.42
2022-09-20T12:06:47.734Z,97.08
2022-09-20T12:07:47.705Z,97.17
2022-09-20T12:08:47.695Z,95.70
2022-09-20T12:09:47.682Z,95.04
2022-09-20T12:10:47.665Z,96.84
2022-09-20T12:11:47.653Z,95.61
2022-09-20T12:12:47.651Z,94.24
2022-09-20T12:13:47.624Z,91.53
2022-09-20T12:14:47.614Z,92.14
2022-09-20T12:15:47.626Z,92.61
2022-09-20T12:16:47.666Z,93.63
2022-09-20T12:17:47.597Z,94.30
2022-09-20T12:18:47.566Z,94.71
2022-09-20T12:19:47.596Z,91.85
2022-09-20T12:20:47.541Z,91.03
2022-09-20T12:21:49.526Z,92.16
2022-09-20T12:22:47.517Z,92.67
2022-09-20T12:23:47.517Z,91.28
2022-09-20T12:24:47.494Z,91.49
2022-09-20T12:25:47.476Z,93.02
2022-09-20T12:26:47.504Z,92.71
2022-09-20T12:27:47.434Z,91.35
2022-09-20T12:28:47.476Z,92.72
2022-09-20T12:29:47.424Z,91.61
2022-09-20T12:30:47.425Z,91.87
2022-09-20T12:31:47.482Z,90.95
2022-09-20T12:32:47.375Z,91.09
2022-09-20T12:33:47.363Z,91.20
2022-09-20T12:34:47.366Z,91.55
2022-09-20T12:35:47.357Z,91.61
2022-09-20T12:36:47.338Z,90.99
2022-09-20T12:37:47.325Z,91.26
2022-09-20T12:38:47.376Z,91.36
2022-09-20T12:39:47.298Z,92.54
2022-09-20T12:40:47.288Z,92.40
2022-09-20T12:41:47.278Z,91.38
2022-09-20T12:42:47.247Z,90.77
2022-09-20T12:43:47.255Z,91.33
2022-09-20T12:44:47.217Z,90.92
2022-09-20T12:45:47.293Z,90.07
2022-09-20T12:46:47.206Z,90.27
2022-09-20T12:47:47.194Z,89.46
2022-09-20T12:48:47.175Z,87.93
2022-09-20T12:50:42.860Z,87.84
2022-09-20T12:51:42.830Z,88.04
2022-09-20T12:52:42.818Z,87.32
2022-09-20T12:53:42.834Z,87.79
2022-09-20T12:54:42.786Z,88.10
2022-09-20T12:55:42.775Z,88.16